Time;durP1;ratioP1;P1;durP2;ratioP2;P2;SDS_P1;SDS_P2;PMS_P1;PMS_P2;Temp;Humidity;BMP_temperature;BMP_pressure;BME280_temperature;BME280_humidity;BME280_pressure;Samples;Min_cycle;Max_cycle;Signal;HPM_P1;HPM_P2
2023/01/20 00:01:28;;;;;;;;;43.00;36.75;;;;;13.18;70.74;100815.47;5101425;27;45382;-83
2023/01/20 00:03:54;;;;;;;;;47.00;38.25;;;;;13.21;70.13;100815.94;5100746;27;45396;-82
2023/01/20 00:06:21;;;;;;;;;38.25;31.00;;;;;13.18;69.15;100820.81;5101255;27;45384;-83
2023/01/20 00:08:51;;;;;;;;;43.25;36.00;;;;;13.11;69.76;100805.56;5100876;27;45356;-83
2023/01/20 00:11:16;;;;;;;;;32.75;30.75;;;;;13.21;70.07;100823.94;5101971;27;45373;-83
2023/01/20 00:13:41;;;;;;;;;42.00;37.00;;;;;13.26;70.01;100829.50;5082357;27;45763;-82
2023/01/20 00:16:09;;;;;;;;;32.50;27.00;;;;;13.33;69.71;100834.94;5082872;27;45486;-82
2023/01/20 00:18:35;;;;;;;;;39.75;36.50;;;;;13.38;69.56;100835.19;5082573;27;46475;-82
2023/01/20 00:21:05;;;;;;;;;33.50;30.00;;;;;13.42;68.91;100837.47;5100984;27;45309;-81
2023/01/20 00:23:31;;;;;;;;;31.00;28.50;;;;;13.35;67.61;100842.75;5100935;27;45482;-82
2023/01/20 00:25:56;;;;;;;;;29.75;27.25;;;;;13.31;67.21;100841.47;5101054;27;45363;-81
2023/01/20 00:28:22;;;;;;;;;33.75;29.00;;;;;13.33;67.91;100844.78;5100604;27;45462;-82
2023/01/20 00:30:47;;;;;;;;;27.75;25.50;;;;;13.40;67.67;100851.00;5100841;27;46091;-81
2023/01/20 00:33:12;;;;;;;;;28.50;24.00;;;;;13.35;66.71;100862.25;5100513;27;45348;-82
2023/01/20 00:35:38;;;;;;;;;26.00;23.75;;;;;13.35;66.86;100864.13;5101070;27;45360;-83
2023/01/20 00:38:03;;;;;;;;;24.50;21.50;;;;;13.31;66.60;100866.31;5100568;27;45235;-81
2023/01/20 00:40:29;;;;;;;;;30.00;24.50;;;;;13.30;65.50;100861.16;5081739;27;46981;-82
2023/01/20 00:42:54;;;;;;;;;22.75;20.00;;;;;13.20;65.99;100864.97;5082080;27;45837;-82
2023/01/20 00:45:19;;;;;;;;;20.50;19.50;;;;;13.22;66.04;100864.78;5082435;27;45295;-83
2023/01/20 00:47:45;;;;;;;;;23.50;22.00;;;;;13.23;67.26;100874.47;5100353;27;45514;-83
2023/01/20 00:50:10;;;;;;;;;25.75;24.75;;;;;13.28;66.83;100873.88;5100719;27;46055;-82
2023/01/20 00:52:35;;;;;;;;;27.50;27.50;;;;;13.34;66.22;100875.78;5100703;27;45262;-82
2023/01/20 00:55:01;;;;;;;;;24.25;24.25;;;;;13.42;66.73;100882.84;5100513;27;45606;-83
2023/01/20 00:57:27;;;;;;;;;22.75;22.75;;;;;13.28;62.90;100881.88;5100280;27;45337;-82
2023/01/20 00:59:52;;;;;;;;;23.25;22.25;;;;;13.18;63.95;100883.03;5100606;27;46308;-82
2023/01/20 01:02:17;;;;;;;;;23.33;20.67;;;;;13.14;65.08;100884.41;5081794;27;45228;-82
2023/01/20 01:04:43;;;;;;;;;21.00;21.00;;;;;13.15;64.58;100896.75;5100103;27;45273;-82
2023/01/20 01:07:08;;;;;;;;;19.33;17.67;;;;;13.12;64.55;100897.13;5081981;27;46095;-81
2023/01/20 01:09:33;;;;;;;;;19.50;19.50;;;;;13.15;65.09;100899.41;5100422;27;45687;-82
2023/01/20 01:11:59;;;;;;;;;29.50;28.00;;;;;13.18;65.02;100903.53;5100331;27;45365;-82
2023/01/20 01:14:24;;;;;;;;;21.50;20.25;;;;;13.22;64.94;100902.97;5100319;27;45260;-82
2023/01/20 01:16:50;;;;;;;;;19.67;19.67;;;;;13.24;64.74;100906.31;5081690;27;47068;-83
2023/01/20 01:19:18;;;;;;;;;22.75;22.75;;;;;13.25;64.79;100901.78;5099875;27;45475;-83
2023/01/20 01:21:43;;;;;;;;;27.33;22.00;;;;;13.28;65.36;100905.91;5099915;27;45295;-82
2023/01/20 01:24:09;;;;;;;;;24.75;19.00;;;;;13.40;64.84;100917.75;5098708;27;45304;-82
2023/01/20 01:26:35;;;;;;;;;20.00;20.00;;;;;13.44;64.83;100920.88;5081871;27;46643;-82
2023/01/20 01:29:00;;;;;;;;;24.67;24.67;;;;;13.43;64.56;100917.38;5100208;27;46271;-83
2023/01/20 01:31:26;;;;;;;;;29.25;22.75;;;;;13.44;65.07;100919.00;5100161;27;45328;-82
2023/01/20 01:33:51;;;;;;;;;30.75;24.50;;;;;13.40;64.66;100915.06;5100089;27;45249;-83
2023/01/20 01:36:16;;;;;;;;;22.00;21.50;;;;;13.42;62.64;100942.44;5099919;27;45429;-82
2023/01/20 01:38:42;;;;;;;;;28.33;24.67;;;;;13.49;63.28;100935.34;5100001;27;45264;-82
2023/01/20 01:41:11;;;;;;;;;26.25;24.50;;;;;13.39;63.21;100935.59;5099681;27;45215;-82
2023/01/20 01:43:38;;;;;;;;;22.33;19.67;;;;;13.42;63.95;100949.59;5081524;27;45365;-82
2023/01/20 01:46:05;;;;;;;;;22.00;21.75;;;;;13.32;64.05;100940.03;5080875;27;47194;-83
2023/01/20 01:48:42;;;;;;;;;24.00;23.00;;;;;13.32;64.67;100944.56;5099617;27;46328;-83
2023/01/20 01:51:18;;;;;;;;;22.00;19.50;;;;;13.43;63.83;100953.91;5098795;27;45360;-83
2023/01/20 01:53:52;;;;;;;;;24.25;22.25;;;;;13.47;64.03;100955.22;5081233;27;45537;-83
2023/01/20 01:56:20;;;;;;;;;24.75;22.25;;;;;13.37;63.72;100955.50;5099561;27;45303;-83
2023/01/20 01:58:49;;;;;;;;;23.50;22.50;;;;;13.34;63.68;100958.53;5099475;27;45519;-83
2023/01/20 02:01:14;;;;;;;;;26.75;26.75;;;;;13.40;64.37;100965.78;5080998;27;45456;-82
2023/01/20 02:03:53;;;;;;;;;26.00;24.25;;;;;13.52;63.06;100966.16;5080836;27;45322;-83
2023/01/20 02:06:20;;;;;;;;;29.75;25.00;;;;;13.34;63.97;100967.38;5068619;27;45951;-83
2023/01/20 02:08:45;;;;;;;;;24.50;22.50;;;;;13.26;64.26;100968.31;5080906;27;47534;-83
2023/01/20 02:11:11;;;;;;;;;30.25;27.00;;;;;13.31;64.43;100969.59;5099445;27;45458;-83
2023/01/20 02:13:36;;;;;;;;;26.33;21.33;;;;;13.24;64.00;100981.03;5099204;27;45693;-82
2023/01/20 02:16:09;;;;;;;;;28.50;24.25;;;;;13.35;63.85;100985.03;5080984;27;47484;-83
2023/01/20 02:19:12;;;;;;;;;22.75;22.75;;;;;13.22;63.12;100987.53;5099089;27;45531;-82
2023/01/20 02:21:55;;;;;;;;;24.50;23.25;;;;;13.12;63.98;100994.03;5099334;27;45371;-82
2023/01/20 02:24:29;;;;;;;;;25.50;23.50;;;;;13.16;64.48;100998.97;5099485;27;45280;-83
2023/01/20 02:27:10;;;;;;;;;24.50;22.25;;;;;13.10;64.51;100997.88;5080709;27;47275;-83
2023/01/20 02:30:23;;;;;;;;;25.67;24.00;;;;;13.10;64.23;100992.53;5098815;27;45446;-83
2023/01/20 02:33:02;;;;;;;;;25.25;24.25;;;;;13.17;64.24;101003.31;4999576;28;45374;-82
2023/01/20 02:35:37;;;;;;;;;31.00;26.25;;;;;13.19;63.94;100999.44;5078220;27;45383;-83
2023/01/20 02:38:10;;;;;;;;;20.50;19.25;;;;;13.12;63.84;101004.69;5098868;27;45451;-82
2023/01/20 02:41:04;;;;;;;;;24.75;24.00;;;;;13.10;62.82;101005.88;5080800;27;47410;-82
2023/01/20 02:44:21;;;;;;;;;24.25;22.25;;;;;13.06;64.07;100999.25;5061488;27;45401;-83
2023/01/20 02:47:08;;;;;;;;;22.00;19.00;;;;;13.10;64.49;101001.38;4999390;28;45395;-83
2023/01/20 02:49:39;;;;;;;;;22.75;22.50;;;;;13.12;64.53;101007.34;5075965;27;46172;-83
2023/01/20 02:52:17;;;;;;;;;24.67;22.67;;;;;13.17;63.91;101012.13;5099090;27;45449;-83
2023/01/20 02:54:48;;;;;;;;;21.00;19.00;;;;;13.05;64.10;101008.28;5098697;27;45385;-83
2023/01/20 02:57:18;;;;;;;;;20.33;20.33;;;;;13.03;64.22;101010.28;5099001;27;45358;-83
2023/01/20 02:59:49;;;;;;;;;19.67;17.67;;;;;12.96;63.66;101016.34;5079809;27;47671;-83
2023/01/20 03:02:19;;;;;;;;;18.00;17.33;;;;;13.04;63.46;101014.59;5080212;27;47085;-83
2023/01/20 03:04:51;;;;;;;;;19.67;18.33;;;;;12.94;63.87;101023.72;5070358;27;46467;-84
2023/01/20 03:07:21;;;;;;;;;23.33;19.33;;;;;12.91;63.72;101020.59;5101994;27;45393;-83
2023/01/20 03:09:50;;;;;;;;;22.50;18.50;;;;;12.91;64.14;101023.25;5083901;27;46336;-82
2023/01/20 03:12:21;;;;;;;;;24.25;21.50;;;;;12.95;64.26;101037.88;5102141;27;45346;-83
2023/01/20 03:14:48;;;;;;;;;24.00;19.75;;;;;12.96;64.73;101027.03;5102052;27;45424;-83
2023/01/20 03:17:14;;;;;;;;;24.25;20.75;;;;;13.03;63.96;101043.16;5101737;27;45449;-82
2023/01/20 03:19:39;;;;;;;;;22.25;18.50;;;;;13.02;63.95;101030.78;5101502;27;45322;-83
2023/01/20 03:22:05;;;;;;;;;17.00;16.33;;;;;13.07;63.14;101047.09;5101901;27;46115;-83
2023/01/20 03:24:32;;;;;;;;;25.00;20.00;;;;;13.16;63.50;101044.31;5083751;27;45283;-83
2023/01/20 03:26:58;;;;;;;;;25.75;24.00;;;;;13.18;62.47;101045.81;5101964;27;45449;-83
2023/01/20 03:29:23;;;;;;;;;21.67;18.33;;;;;13.14;63.44;101041.84;5083419;27;45637;-83
2023/01/20 03:31:55;;;;;;;;;22.25;22.00;;;;;13.18;62.79;101043.16;5083198;27;47359;-83
2023/01/20 03:34:23;;;;;;;;;24.25;22.25;;;;;13.21;62.92;101044.63;5102009;27;45450;-83
2023/01/20 03:36:50;;;;;;;;;31.25;23.75;;;;;13.19;63.34;101044.78;5083228;27;45429;-83
2023/01/20 03:39:17;;;;;;;;;24.50;22.75;;;;;13.17;63.67;101054.81;5101875;27;45234;-83
2023/01/20 03:42:10;;;;;;;;;25.25;21.50;;;;;13.21;63.80;101061.47;5101565;27;46244;-83
2023/01/20 03:44:57;;;;;;;;;22.00;19.25;;;;;13.16;64.47;101066.50;5043522;27;45573;-83
2023/01/20 03:47:41;;;;;;;;;21.25;20.25;;;;;13.16;65.01;101066.50;5101779;27;45438;-83
2023/01/20 03:50:30;;;;;;;;;26.25;25.25;;;;;13.13;64.23;101069.53;5101744;27;45261;-83
2023/01/20 03:53:10;;;;;;;;;25.50;21.75;;;;;12.98;64.67;101066.84;5083178;27;47251;-83
2023/01/20 03:56:25;;;;;;;;;22.33;19.67;;;;;12.99;64.42;101076.53;5083084;27;45300;-83
2023/01/20 03:58:53;;;;;;;;;21.67;20.00;;;;;12.95;64.40;101073.41;5069232;27;45353;-83
2023/01/20 04:01:23;;;;;;;;;23.33;18.33;;;;;12.95;64.28;101078.72;5082536;27;47296;-83
2023/01/20 04:03:52;;;;;;;;;19.50;19.00;;;;;12.97;64.55;101091.88;5101046;27;45309;-83
2023/01/20 04:06:21;;;;;;;;;23.00;20.00;;;;;12.92;64.48;101087.09;5087785;27;45513;-83
2023/01/20 04:08:53;;;;;;;;;22.67;22.67;;;;;12.95;64.37;101093.91;5101312;27;45368;-83
2023/01/20 04:11:19;;;;;;;;;22.75;18.75;;;;;12.92;65.35;101097.75;5101275;27;45411;-84
2023/01/20 04:13:44;;;;;;;;;23.67;21.00;;;;;12.92;65.02;101100.44;5100903;27;46192;-83
2023/01/20 04:16:15;;;;;;;;;24.75;20.25;;;;;12.98;64.89;101097.03;5100445;27;45574;-83
2023/01/20 04:18:44;;;;;;;;;25.33;22.00;;;;;12.89;64.99;101082.13;5082607;27;45332;-83
2023/01/20 04:21:28;;;;;;;;;27.50;19.75;;;;;12.98;64.55;101098.88;5101114;27;45468;-83
2023/01/20 04:24:02;;;;;;;;;33.25;29.00;;;;;12.94;65.14;101102.91;5100758;27;45296;-83
2023/01/20 04:26:28;;;;;;;;;32.75;27.75;;;;;12.91;65.18;101096.13;5101061;27;45406;-83
2023/01/20 04:28:53;;;;;;;;;25.67;22.67;;;;;12.91;65.39;101096.13;5100890;27;45423;-83
2023/01/20 04:31:18;;;;;;;;;26.25;22.50;;;;;12.97;65.32;101110.56;5101040;27;45533;-83
2023/01/20 04:33:44;;;;;;;;;28.50;26.50;;;;;13.04;65.26;101113.31;5079709;27;48284;-83
2023/01/20 04:36:09;;;;;;;;;27.25;23.00;;;;;12.99;65.35;101109.38;5092903;27;45314;-83
2023/01/20 04:38:34;;;;;;;;;30.50;24.50;;;;;12.98;64.73;101110.38;5100764;27;45251;-83
2023/01/20 04:41:00;;;;;;;;;19.25;16.75;;;;;12.98;64.26;101110.38;5082521;27;46274;-83
2023/01/20 04:43:25;;;;;;;;;27.50;24.75;;;;;12.94;64.94;101118.94;5100617;27;45517;-84
2023/01/20 04:46:05;;;;;;;;;31.50;21.50;;;;;12.97;64.69;101121.25;5051371;27;45357;-83
2023/01/20 04:48:31;;;;;;;;;30.50;25.75;;;;;12.94;64.34;101130.44;5100461;27;45210;-83
2023/01/20 04:50:56;;;;;;;;;29.25;25.50;;;;;12.90;63.96;101130.97;5100598;27;45436;-83
2023/01/20 04:53:21;;;;;;;;;22.25;20.25;;;;;12.90;64.59;101134.44;5100486;27;46246;-83
2023/01/20 04:55:47;;;;;;;;;28.75;22.25;;;;;12.93;64.64;101139.44;5082306;27;45455;-83
2023/01/20 04:58:12;;;;;;;;;21.75;20.25;;;;;12.96;64.65;101151.59;5100402;27;45338;-83
2023/01/20 05:00:37;;;;;;;;;26.33;22.33;;;;;12.97;64.54;101140.75;5100973;27;45338;-83
2023/01/20 05:03:04;;;;;;;;;29.00;24.75;;;;;12.99;64.78;101136.06;5082407;27;46224;-83
2023/01/20 05:05:30;;;;;;;;;27.25;25.25;;;;;13.03;64.59;101139.19;5100521;27;45395;-83
2023/01/20 05:07:56;;;;;;;;;24.75;23.75;;;;;13.03;64.81;101149.03;5081665;27;45396;-83
2023/01/20 05:10:21;;;;;;;;;30.25;27.25;;;;;13.06;64.67;101149.50;5100393;27;45319;-83
2023/01/20 05:12:46;;;;;;;;;30.00;24.75;;;;;13.07;64.64;101145.81;5064898;27;46894;-83
2023/01/20 05:15:12;;;;;;;;;32.75;31.75;;;;;13.08;64.59;101152.00;5081797;27;45411;-84
2023/01/20 05:17:37;;;;;;;;;30.00;27.50;;;;;13.05;64.37;101158.50;5099974;27;45365;-83
2023/01/20 05:20:03;;;;;;;;;34.75;28.50;;;;;13.04;64.58;101153.34;5081914;27;47647;-83
2023/01/20 05:22:31;;;;;;;;;34.25;28.00;;;;;12.94;63.92;101153.59;5100142;27;45388;-83
2023/01/20 05:24:57;;;;;;;;;29.75;26.25;;;;;12.95;64.13;101158.78;5100069;27;45234;-83
2023/01/20 05:27:22;;;;;;;;;32.00;27.25;;;;;12.93;64.85;101154.63;5099750;27;45219;-84
2023/01/20 05:29:48;;;;;;;;;29.50;25.25;;;;;12.92;64.74;101160.94;5099824;27;45350;-83
2023/01/20 05:32:13;;;;;;;;;36.75;31.25;;;;;12.92;64.66;101163.63;5100130;27;45416;-83
2023/01/20 05:34:38;;;;;;;;;30.75;28.50;;;;;12.87;65.32;101166.84;5081385;27;45561;-83
2023/01/20 05:37:04;;;;;;;;;34.50;33.00;;;;;12.76;65.42;101146.75;5081440;27;45340;-83
2023/01/20 05:39:29;;;;;;;;;31.25;30.00;;;;;12.83;66.18;101165.53;5081639;27;47033;-83
2023/01/20 05:41:54;;;;;;;;;34.25;31.50;;;;;12.91;65.43;101175.31;5099624;27;45341;-83
2023/01/20 05:44:19;;;;;;;;;32.00;28.50;;;;;12.85;65.13;101176.84;5081378;27;45349;-83
2023/01/20 05:46:45;;;;;;;;;39.00;32.75;;;;;12.84;65.88;101181.34;5099878;27;45307;-83
2023/01/20 05:49:14;;;;;;;;;31.00;30.75;;;;;12.84;65.26;101181.34;5099760;27;45373;-83
2023/01/20 05:51:39;;;;;;;;;33.50;28.25;;;;;12.78;65.65;101176.72;5099580;27;45263;-83
2023/01/20 05:54:04;;;;;;;;;25.00;22.25;;;;;12.84;65.84;101183.22;5099521;27;45598;-83
2023/01/20 05:56:30;;;;;;;;;31.50;26.25;;;;;12.77;65.79;101182.25;5081310;27;45407;-83
2023/01/20 05:58:55;;;;;;;;;31.75;31.25;;;;;12.83;65.64;101194.88;5099512;27;45277;-83
2023/01/20 06:01:21;;;;;;;;;36.50;33.25;;;;;12.80;65.94;101182.72;5099597;27;45197;-83
2023/01/20 06:03:46;;;;;;;;;36.75;28.75;;;;;12.79;66.34;101177.56;5099540;27;45290;-83
2023/01/20 06:06:17;;;;;;;;;36.00;32.75;;;;;12.90;66.50;101195.00;5099655;27;45173;-83
2023/01/20 06:08:43;;;;;;;;;41.50;35.25;;;;;12.93;65.85;101197.31;5095220;27;46296;-83
2023/01/20 06:11:09;;;;;;;;;36.00;31.75;;;;;12.93;65.81;101189.31;5080839;27;47190;-83
2023/01/20 06:13:35;;;;;;;;;33.75;30.00;;;;;12.93;65.67;101197.31;5099482;27;45315;-83
2023/01/20 06:16:00;;;;;;;;;36.50;33.25;;;;;12.95;65.71;101198.78;5099379;27;45307;-83
2023/01/20 06:18:26;;;;;;;;;37.75;30.25;;;;;12.98;65.72;101201.09;5099237;27;45334;-83
2023/01/20 06:20:56;;;;;;;;;36.25;32.50;;;;;12.85;66.04;101190.19;5099159;27;45306;-83
2023/01/20 06:23:21;;;;;;;;;37.75;36.25;;;;;12.84;66.20;101199.22;5099327;27;45377;-83
2023/01/20 06:25:46;;;;;;;;;43.75;33.25;;;;;12.78;66.15;101190.06;5096093;27;45770;-83
2023/01/20 06:28:12;;;;;;;;;38.75;34.25;;;;;12.73;66.28;101193.28;5088165;27;45715;-83
2023/01/20 06:30:37;;;;;;;;;39.50;34.00;;;;;12.71;65.99;101205.97;5097303;27;45318;-82
2023/01/20 06:33:03;;;;;;;;;35.25;33.25;;;;;12.57;66.47;101204.06;5080190;27;45445;-81
2023/01/20 06:35:28;;;;;;;;;32.00;29.75;;;;;12.63;66.71;101208.66;5099202;27;45361;-80
2023/01/20 06:37:56;;;;;;;;;44.50;36.00;;;;;12.61;66.95;101208.84;5099482;27;45322;-80
2023/01/20 06:40:22;;;;;;;;;34.50;31.25;;;;;12.60;66.98;101201.03;5096794;27;46119;-81
2023/01/20 06:42:47;;;;;;;;;30.50;30.25;;;;;12.57;66.95;101198.72;5094162;27;45439;-80
2023/01/20 06:45:12;;;;;;;;;34.25;27.75;;;;;12.59;66.64;101205.53;5102763;27;45327;-80
2023/01/20 06:47:38;;;;;;;;;37.00;33.75;;;;;12.54;66.48;101202.56;5103596;27;45208;-80
2023/01/20 06:50:04;;;;;;;;;39.00;34.25;;;;;12.46;66.82;101200.78;5102886;27;45695;-81
2023/01/20 06:52:29;;;;;;;;;41.25;36.00;;;;;12.47;66.87;101209.59;5102991;27;45351;-83
2023/01/20 06:54:54;;;;;;;;;31.75;29.50;;;;;12.45;66.92;101216.97;5083177;27;45645;-81
2023/01/20 06:57:19;;;;;;;;;36.00;33.00;;;;;12.45;66.91;101208.97;5102067;27;45365;-82
2023/01/20 06:59:45;;;;;;;;;43.75;36.00;;;;;12.43;66.44;101213.63;5101730;27;46100;-81
2023/01/20 07:02:11;;;;;;;;;35.75;31.50;;;;;12.32;67.24;101226.34;5084157;27;45465;-82
2023/01/20 07:04:36;;;;;;;;;40.00;33.75;;;;;12.23;67.79;101227.38;5101543;27;45424;-81
2023/01/20 07:07:02;;;;;;;;;34.00;32.50;;;;;12.28;67.37;101254.34;5083677;27;47063;-82
2023/01/20 07:09:27;;;;;;;;;35.75;34.50;;;;;12.21;67.03;101251.53;5101698;27;46091;-81
2023/01/20 07:11:53;;;;;;;;;38.75;35.00;;;;;12.12;67.14;101252.56;5102462;27;45283;-82
2023/01/20 07:14:19;;;;;;;;;35.75;34.25;;;;;12.09;67.44;101263.59;5102881;27;45422;-80
2023/01/20 07:16:44;;;;;;;;;36.25;35.50;;;;;12.14;67.45;101266.56;5085745;27;46305;-80
2023/01/20 07:19:11;;;;;;;;;38.00;34.50;;;;;12.13;67.53;101264.91;5099878;27;46179;-80
2023/01/20 07:21:36;;;;;;;;;30.25;30.25;;;;;12.15;67.83;101264.72;5088456;27;45300;-81
2023/01/20 07:24:02;;;;;;;;;45.00;35.25;;;;;12.13;67.22;101259.56;5101452;27;45295;-82
2023/01/20 07:26:27;;;;;;;;;38.50;33.00;;;;;12.03;67.34;101250.91;5100507;27;45265;-82
2023/01/20 07:28:53;;;;;;;;;35.25;32.50;;;;;12.06;67.53;101262.03;5090107;27;45650;-81
2023/01/20 07:31:22;;;;;;;;;36.00;32.00;;;;;12.05;68.00;101256.88;5099434;27;45359;-80
2023/01/20 07:33:48;;;;;;;;;34.75;32.00;;;;;12.05;67.77;101270.22;5092962;27;45314;-80
2023/01/20 07:36:14;;;;;;;;;31.00;31.00;;;;;12.04;67.34;101274.72;5101553;27;45385;-81
2023/01/20 07:38:40;;;;;;;;;32.50;29.25;;;;;12.02;67.34;101265.22;5101683;27;45382;-81
2023/01/20 07:41:10;;;;;;;;;31.75;29.75;;;;;12.08;67.53;101284.06;5083302;27;45622;-81
2023/01/20 07:43:36;;;;;;;;;37.75;33.75;;;;;12.06;67.68;101282.53;5102868;27;45485;-81
2023/01/20 07:46:03;;;;;;;;;37.50;36.25;;;;;12.04;67.57;101290.72;5085338;27;45379;-81
2023/01/20 07:48:31;;;;;;;;;27.25;25.50;;;;;12.00;67.20;101292.88;5093997;27;46045;-82
2023/01/20 07:51:01;;;;;;;;;40.00;34.25;;;;;11.95;67.81;101284.56;5099390;27;45584;-81
2023/01/20 07:53:32;;;;;;;;;38.25;34.50;;;;;11.94;67.59;101290.06;5093724;27;45366;-82
2023/01/20 07:56:09;;;;;;;;;33.75;30.25;;;;;11.93;67.96;101299.88;5103134;27;45479;-83
2023/01/20 07:58:35;;;;;;;;;37.50;34.00;;;;;11.92;68.05;101316.03;5102069;27;45545;-80
2023/01/20 08:01:09;;;;;;;;;34.25;32.75;;;;;11.91;68.36;101317.03;5097051;27;45439;-80
2023/01/20 08:03:35;;;;;;;;;38.25;33.25;;;;;11.90;68.16;101321.53;5097129;27;45366;-80
2023/01/20 08:06:08;;;;;;;;;37.25;33.75;;;;;11.94;68.33;101314.03;5094872;27;45373;-78
2023/01/20 08:08:34;;;;;;;;;39.00;32.00;;;;;11.96;68.11;101312.88;5101072;27;45388;-80
2023/01/20 08:11:00;;;;;;;;;34.50;32.75;;;;;12.06;68.27;101319.84;5082711;27;46253;-79
2023/01/20 08:13:27;;;;;;;;;29.50;29.00;;;;;12.07;67.50;101321.53;5101583;27;45364;-81
2023/01/20 08:15:52;;;;;;;;;29.75;26.50;;;;;12.02;67.57;101311.34;5100769;27;45373;-81
2023/01/20 08:18:17;;;;;;;;;33.25;28.25;;;;;11.99;68.16;101306.34;5075947;27;46482;-80
2023/01/20 08:20:43;;;;;;;;;41.25;37.50;;;;;12.05;68.18;101310.16;5083547;27;45755;-79
2023/01/20 08:23:08;;;;;;;;;34.75;34.25;;;;;12.04;68.62;101325.34;5102504;27;45322;-78
2023/01/20 08:25:33;;;;;;;;;32.75;28.00;;;;;12.06;68.08;101311.84;5088454;27;45306;-78
2023/01/20 08:27:59;;;;;;;;;40.50;37.25;;;;;12.05;68.44;101311.00;5101009;27;45790;-77
2023/01/20 08:30:24;;;;;;;;;35.25;33.50;;;;;12.12;68.64;101316.50;5080630;27;45771;-76
2023/01/20 08:32:49;;;;;;;;;54.00;44.00;;;;;12.20;69.01;101327.16;5074212;27;45338;-80
2023/01/20 08:35:15;;;;;;;;;34.00;33.00;;;;;12.23;68.18;101333.97;5100733;27;45239;-78
2023/01/20 08:37:40;;;;;;;;;36.50;35.00;;;;;12.23;68.74;101348.13;5100676;27;45237;-79
2023/01/20 08:40:07;;;;;;;;;34.50;29.00;;;;;12.22;68.37;101343.78;5100435;27;45299;-80
2023/01/20 08:42:33;;;;;;;;;35.00;32.25;;;;;12.29;68.49;101341.28;5097870;27;45283;-79
2023/01/20 08:44:59;;;;;;;;;45.00;37.75;;;;;12.31;68.50;101338.47;5100564;27;45619;-78
2023/01/20 08:47:24;;;;;;;;;52.00;43.75;;;;;12.36;68.80;101352.09;5100459;27;46202;-78
2023/01/20 08:49:52;;;;;;;;;40.00;36.25;;;;;12.35;68.32;101358.44;5100384;27;45301;-77
2023/01/20 08:52:17;;;;;;;;;35.00;33.50;;;;;12.31;68.23;101349.97;5082659;27;45371;-78
2023/01/20 08:54:43;;;;;;;;;35.00;34.00;;;;;12.25;67.69;101356.78;5095236;27;45386;-79
2023/01/20 08:57:08;;;;;;;;;39.00;35.50;;;;;12.27;68.53;101359.28;5096443;27;48478;-78
2023/01/20 08:59:33;;;;;;;;;45.25;40.00;;;;;12.25;68.58;101361.28;5099787;27;45375;-77
2023/01/20 09:01:58;;;;;;;;;38.25;36.25;;;;;12.22;68.81;101361.63;5081955;27;45509;-78
2023/01/20 09:04:24;;;;;;;;;39.25;35.50;;;;;12.17;69.04;101346.16;5099661;27;45180;-78
2023/01/20 09:06:51;;;;;;;;;34.25;31.75;;;;;12.11;69.06;101350.34;5099947;27;45244;-80
2023/01/20 09:09:18;;;;;;;;;39.25;32.75;;;;;12.09;69.51;101357.66;5102305;27;45329;-80
2023/01/20 09:11:49;;;;;;;;;42.75;36.25;;;;;12.07;70.11;101359.66;5098795;27;45649;-78
2023/01/20 09:14:18;;;;;;;;;36.25;34.75;;;;;12.04;70.16;101359.97;5099006;27;45251;-79
2023/01/20 09:16:44;;;;;;;;;44.25;38.25;;;;;12.05;70.40;101355.47;5099555;27;46075;-79
2023/01/20 09:19:09;;;;;;;;;36.50;33.00;;;;;12.09;70.61;101357.66;5081262;27;45420;-79
2023/01/20 09:21:34;;;;;;;;;41.25;35.00;;;;;12.13;70.04;101374.16;5099595;27;45350;-79
2023/01/20 09:23:59;;;;;;;;;41.25;38.75;;;;;12.14;70.19;101370.47;5097210;27;45334;-79
2023/01/20 09:26:25;;;;;;;;;41.50;35.75;;;;;12.19;69.66;101377.97;5098407;27;45904;-78
2023/01/20 09:28:50;;;;;;;;;40.25;33.50;;;;;12.23;69.87;101379.28;5098505;27;45392;-79
2023/01/20 09:31:15;;;;;;;;;38.75;34.25;;;;;12.25;70.04;101379.94;5081346;27;45418;-79
2023/01/20 09:33:42;;;;;;;;;37.25;33.75;;;;;12.17;70.35;101378.13;5099055;27;45412;-79
2023/01/20 09:36:09;;;;;;;;;32.50;30.75;;;;;12.23;70.42;101377.47;5099611;27;45308;-80
2023/01/20 09:44:41;;;;;;;;;37.00;33.50;;;;;12.26;70.06;101362.94;5099673;27;45323;-79
2023/01/20 09:47:29;;;;;;;;;37.75;34.75;;;;;12.41;70.25;101379.06;5077165;27;47577;-82
2023/01/20 09:53:34;;;;;;;;;39.50;36.25;;;;;12.45;70.98;101380.38;5100515;27;45361;-83
2023/01/20 09:56:09;;;;;;;;;42.75;37.25;;;;;12.61;71.36;101392.03;5100540;27;45402;-84
2023/01/20 09:59:04;;;;;;;;;34.50;30.75;;;;;12.69;70.97;101388.50;5095364;27;45462;-83
2023/01/20 10:01:41;;;;;;;;;37.00;33.50;;;;;12.68;70.76;101387.66;5090040;27;45455;-82
2023/01/20 10:04:16;;;;;;;;;35.50;29.25;;;;;12.72;71.24;101390.81;5094221;27;45453;-83
2023/01/20 10:06:53;;;;;;;;;29.00;28.25;;;;;12.75;71.70;101403.78;5081209;27;46447;-82
2023/01/20 10:09:44;;;;;;;;;38.50;34.75;;;;;12.81;71.69;101397.75;5093549;27;48223;-82
2023/01/20 10:12:17;;;;;;;;;40.75;35.75;;;;;12.87;71.25;101401.59;5095650;27;45498;-82
2023/01/20 10:15:15;;;;;;;;;35.75;34.00;;;;;12.91;71.72;101402.91;5083409;27;45311;-82
2023/01/20 10:18:01;;;;;;;;;35.00;33.25;;;;;12.84;71.79;101386.75;5101854;27;45334;-79
2023/01/20 10:20:44;;;;;;;;;41.50;35.25;;;;;12.87;71.73;101396.28;5102061;27;45371;-80
2023/01/20 10:23:20;;;;;;;;;39.75;37.75;;;;;12.31;74.37;101397.94;5083690;27;45841;-81
2023/01/20 10:25:55;;;;;;;;;40.75;35.25;;;;;9.39;87.65;101418.88;5089490;27;45479;-80
2023/01/20 10:28:27;;;;;;;;;40.25;34.75;;;;;9.04;93.21;101432.75;5101923;27;45449;-80
2023/01/20 10:30:56;;;;;;;;;36.25;32.75;;;;;8.80;96.27;101426.16;5102719;27;45825;-81
2023/01/20 10:33:37;;;;;;;;;36.00;33.25;;;;;8.67;98.64;101421.19;5100795;27;45329;-79
2023/01/20 10:36:07;;;;;;;;;40.50;36.25;;;;;8.67;100.00;101413.25;5087342;27;45419;-80
2023/01/20 10:38:44;;;;;;;;;32.25;31.50;;;;;8.68;100.00;101416.72;5106032;27;45241;-82
2023/01/20 10:41:21;;;;;;;;;35.50;33.00;;;;;8.66;100.00;101410.72;5090246;27;45304;-80
2023/01/20 10:43:47;;;;;;;;;36.75;33.75;;;;;8.70;100.00;101417.41;5102587;27;45390;-81
2023/01/20 10:46:22;;;;;;;;;36.00;34.50;;;;;8.77;100.00;101415.84;5084224;27;45381;-80
2023/01/20 10:49:09;;;;;;;;;38.75;36.25;;;;;8.86;100.00;101431.88;5103132;27;45448;-80
2023/01/20 10:51:43;;;;;;;;;32.75;29.50;;;;;8.94;100.00;101419.53;5084749;27;46011;-82
2023/01/20 10:54:28;;;;;;;;;41.00;37.25;;;;;9.00;100.00;101419.94;5101080;27;45743;-83
2023/01/20 10:56:57;;;;;;;;;39.25;36.50;;;;;9.00;100.00;101414.63;5102507;27;45410;-80
2023/01/20 10:59:30;;;;;;;;;36.75;33.00;;;;;9.04;100.00;101414.19;5083961;27;45552;-82
2023/01/20 11:02:03;;;;;;;;;37.50;33.25;;;;;9.03;100.00;101423.13;5101810;27;46950;-79
2023/01/20 11:04:30;;;;;;;;;34.25;32.50;;;;;9.05;100.00;101409.72;5102105;27;45354;-79
2023/01/20 11:06:59;;;;;;;;;38.00;37.00;;;;;9.08;100.00;101412.09;5102350;27;45329;-79
2023/01/20 11:09:38;;;;;;;;;50.50;42.75;;;;;9.16;100.00;101417.47;5084837;27;45464;-79
2023/01/20 11:12:13;;;;;;;;;38.00;34.25;;;;;9.24;100.00;101408.78;5101939;27;45514;-79
2023/01/20 11:14:39;;;;;;;;;21.33;20.67;;;;;9.29;100.00;101421.59;5102049;27;45350;-79
2023/01/20 11:17:07;;;;;;;;;30.00;27.67;;;;;9.34;100.00;101406.09;5101959;27;45446;-78
2023/01/20 11:19:46;;;;;;;;;26.00;24.33;;;;;9.38;100.00;101419.88;5083916;27;45552;-80
2023/01/20 11:22:19;;;;;;;;;25.33;21.00;;;;;9.36;100.00;101419.19;5101887;27;45239;-79
2023/01/20 11:24:46;;;;;;;;;22.67;21.67;;;;;9.37;100.00;101408.41;5101886;27;45159;-79
2023/01/20 11:27:21;;;;;;;;;22.00;18.33;;;;;9.46;100.00;101423.44;5101745;27;45362;-79
2023/01/20 11:30:14;;;;;;;;;20.67;19.00;;;;;9.60;100.00;101422.09;5101891;27;45280;-79